DRZA/AJY METAR and TAF weather

Enter ICAO airport designator
Station Type Date Time Source
DRZA METAR 2019/08/21 18:00 UTC NOAA

DRZA 211800Z 08004KT CAVOK 29/23 Q1012


Station Type Date Time Source
DRZA Decoded METAR 2019/08/21 18:00 UTC NOAA

Station name not available
Aug 21, 2019 - 02:00 PM EDT / 2019.08.21 1800 UTC
Wind: from the E (080 degrees) at 5 MPH (4 KT):0
Visibility: greater than 7 mile(s):0
Temperature: 84 F (29 C)
Dew Point: 73 F (23 C)
Relative Humidity: 70%
Pressure (altimeter): 29.88 in. Hg (1012 hPa)
ob: DRZA 211800Z 08004KT CAVOK 29/23 Q1012
cycle: 18

Station Type Date Time Source
DRZA TAF 2019/08/21 18:21 UTC NOAA

TAF DRZA 211700Z 2118/2218 24010KT 8000 NSC
TEMPO 2212/2218 TS SCT030 FEW040CB

Example: see airport list